Time;durP1;ratioP1;P1;durP2;ratioP2;P2;SDS_P1;SDS_P2;PMS_P1;PMS_P2;Temp;Humidity;BMP_temperature;BMP_pressure;BME280_temperature;BME280_humidity;BME280_pressure;Samples;Min_cycle;Max_cycle;Signal;HPM_P1;HPM_P2
2022/04/14 00:04:13;;;;;;;24.80;12.60;;;;;;;5.56;56.36;100331.14;213477;1279;140187;-71
2022/04/14 00:09:16;;;;;;;19.50;13.50;;;;;;;5.48;56.37;100323.17;213971;1277;140842;-71
2022/04/14 00:14:20;;;;;;;17.30;11.80;;;;;;;5.41;56.55;100318.34;213568;1277;141450;-68
2022/04/14 00:19:23;;;;;;;17.40;13.50;;;;;;;5.36;56.53;100318.89;213185;1278;152293;-71
2022/04/14 00:24:26;;;;;;;26.40;13.50;;;;;;;5.31;56.69;100317.62;214368;1277;141470;-74
2022/04/14 00:29:29;;;;;;;23.40;14.20;;;;;;;5.29;56.69;100310.35;214569;1277;141537;-72
2022/04/14 00:34:32;;;;;;;21.80;13.20;;;;;;;5.26;56.92;100309.98;215524;1277;141053;-73
2022/04/14 00:39:35;;;;;;;20.00;13.30;;;;;;;5.23;56.94;100308.61;215739;1277;141284;-67
2022/04/14 00:44:38;;;;;;;22.00;12.60;;;;;;;5.21;57.00;100307.65;215733;1277;141032;-67
2022/04/14 00:49:41;;;;;;;28.90;15.60;;;;;;;5.19;56.95;100307.48;214387;1277;141689;-67
2022/04/14 00:54:45;;;;;;;24.40;13.10;;;;;;;5.19;56.94;100303.13;213833;1279;141655;-67
2022/04/14 00:59:48;;;;;;;20.60;12.90;;;;;;;5.18;57.17;100295.72;213070;1278;140954;-67
2022/04/14 01:04:51;;;;;;;21.10;11.80;;;;;;;5.16;57.17;100293.17;214642;1277;140362;-67
2022/04/14 01:09:55;;;;;;;19.50;12.40;;;;;;;5.12;57.28;100290.98;213170;1277;142086;-67
2022/04/14 01:14:58;;;;;;;21.80;13.60;;;;;;;5.10;57.47;100296.64;213071;1277;140994;-67
2022/04/14 01:20:00;;;;;;;19.10;12.40;;;;;;;5.08;57.41;100295.23;214493;1277;141311;-68
2022/04/14 01:25:02;;;;;;;27.20;11.50;;;;;;;5.08;57.38;100298.41;213116;1277;163852;-67
2022/04/14 01:30:05;;;;;;;17.60;12.90;;;;;;;5.07;57.51;100302.29;213655;1277;139753;-67
2022/04/14 01:35:08;;;;;;;18.30;12.30;;;;;;;5.05;57.34;100297.55;214485;1277;139617;-66
2022/04/14 01:40:12;;;;;;;18.60;12.50;;;;;;;5.02;57.58;100291.75;213797;1277;139950;-68
2022/04/14 01:45:14;;;;;;;20.60;12.90;;;;;;;4.98;57.43;100292.42;214340;1277;139470;-66
2022/04/14 01:50:18;;;;;;;16.90;10.20;;;;;;;4.95;57.47;100288.23;213711;1276;140161;-67
2022/04/14 01:55:21;;;;;;;15.10;11.10;;;;;;;4.90;57.60;100289.55;213409;1281;140579;-66
2022/04/14 02:00:23;;;;;;;16.40;9.00;;;;;;;4.86;57.69;100291.31;214615;1277;140780;-64
2022/04/14 02:05:26;;;;;;;18.20;11.30;;;;;;;4.85;57.65;100292.64;214377;1277;139572;-68
2022/04/14 02:10:29;;;;;;;15.50;10.30;;;;;;;4.85;57.65;100296.14;214156;1277;140971;-69
2022/04/14 02:15:32;;;;;;;16.50;11.30;;;;;;;4.85;57.73;100288.95;214106;1277;143879;-71
2022/04/14 02:20:34;;;;;;;16.70;12.60;;;;;;;4.81;57.65;100285.33;214626;1277;141595;-69
2022/04/14 02:25:36;;;;;;;17.60;9.80;;;;;;;4.78;57.75;100289.41;213047;1280;141240;-70
2022/04/14 02:30:39;;;;;;;26.50;11.80;;;;;;;4.74;57.91;100287.61;214470;1279;141963;-69
2022/04/14 02:35:42;;;;;;;17.60;12.20;;;;;;;4.71;57.94;100286.55;215529;1279;140930;-72
2022/04/14 02:40:44;;;;;;;14.40;10.60;;;;;;;4.68;57.93;100283.95;215923;1277;139601;-68
2022/04/14 02:45:47;;;;;;;23.90;12.60;;;;;;;4.65;58.08;100274.04;215733;1277;141263;-68
2022/04/14 02:50:50;;;;;;;25.30;13.80;;;;;;;4.60;58.19;100268.33;214165;1277;139724;-67
2022/04/14 02:55:52;;;;;;;18.40;10.70;;;;;;;4.54;58.16;100265.17;215446;1278;140079;-67
2022/04/14 03:00:56;;;;;;;16.50;9.70;;;;;;;4.52;58.30;100264.61;213424;1277;139458;-65
2022/04/14 03:05:59;;;;;;;22.50;12.30;;;;;;;4.49;58.34;100261.08;212723;1279;139085;-67
2022/04/14 03:11:02;;;;;;;19.00;11.00;;;;;;;4.44;58.31;100260.96;214094;1277;140914;-67
2022/04/14 03:16:05;;;;;;;14.30;9.10;;;;;;;4.39;58.48;100253.27;213238;1277;141199;-67
2022/04/14 03:21:08;;;;;;;13.90;10.00;;;;;;;4.31;58.54;100250.50;213422;1277;139932;-67
2022/04/14 03:26:10;;;;;;;21.60;12.30;;;;;;;4.22;58.88;100253.68;213148;1277;139979;-68
2022/04/14 03:31:13;;;;;;;29.50;15.30;;;;;;;4.15;59.27;100246.79;213217;1277;140512;-66
2022/04/14 03:36:16;;;;;;;24.00;13.20;;;;;;;4.08;59.14;100244.38;213953;1277;141440;-67
2022/04/14 03:41:19;;;;;;;21.50;13.20;;;;;;;4.04;59.32;100241.74;214026;1277;140871;-68
2022/04/14 03:46:22;;;;;;;18.20;11.30;;;;;;;4.01;59.41;100238.05;213688;1277;139480;-68
2022/04/14 03:51:25;;;;;;;21.60;12.10;;;;;;;3.98;59.51;100232.41;213049;1277;163036;-67
2022/04/14 03:56:27;;;;;;;21.30;12.80;;;;;;;3.98;59.66;100231.02;213942;1277;140614;-67
2022/04/14 04:01:30;;;;;;;21.00;12.90;;;;;;;4.00;59.64;100222.73;213172;1277;143686;-66
2022/04/14 04:06:33;;;;;;;17.60;10.60;;;;;;;4.02;59.85;100224.67;213263;1277;140721;-68
2022/04/14 04:11:35;;;;;;;20.00;11.50;;;;;;;4.09;59.65;100226.36;213201;1277;140466;-69
2022/04/14 04:16:37;;;;;;;19.20;12.10;;;;;;;4.17;59.65;100223.73;213874;1276;140637;-71
2022/04/14 04:21:40;;;;;;;17.40;11.40;;;;;;;4.27;59.64;100219.48;213701;1276;141143;-73
2022/04/14 04:26:43;;;;;;;16.70;10.50;;;;;;;4.36;59.46;100221.71;214306;1277;141787;-72
2022/04/14 04:31:47;;;;;;;18.30;9.90;;;;;;;4.48;59.45;100217.52;214395;1277;140815;-74
2022/04/14 04:36:52;;;;;;;16.40;10.30;;;;;;;4.60;59.29;100222.63;213451;1278;140969;-72
2022/04/14 04:41:55;;;;;;;18.10;10.00;;;;;;;4.76;58.89;100217.77;213430;1277;141051;-74
2022/04/14 04:46:57;;;;;;;19.40;10.70;;;;;;;4.93;58.62;100219.20;215692;1278;142112;-77
2022/04/14 04:52:03;;;;;;;28.80;12.40;;;;;;;5.09;58.51;100214.34;213424;1279;140340;-72
2022/04/14 04:57:06;;;;;;;17.10;11.50;;;;;;;5.22;58.22;100210.27;214890;1277;139924;-68
2022/04/14 05:02:09;;;;;;;16.80;10.50;;;;;;;5.38;58.00;100208.29;215268;1277;140270;-69
2022/04/14 05:07:13;;;;;;;22.10;13.30;;;;;;;5.59;58.06;100208.46;214168;1276;140884;-70
2022/04/14 05:12:17;;;;;;;19.30;11.60;;;;;;;5.82;57.70;100204.74;213550;1277;140182;-68
2022/04/14 05:17:19;;;;;;;19.70;11.60;;;;;;;6.05;57.72;100194.67;213980;1277;140091;-68
2022/04/14 05:22:22;;;;;;;19.00;10.80;;;;;;;6.32;57.53;100189.30;213884;1276;140673;-66
2022/04/14 05:27:24;;;;;;;20.00;12.50;;;;;;;6.57;57.05;100184.02;213679;1279;141051;-67
2022/04/14 05:32:27;;;;;;;21.80;15.30;;;;;;;6.81;56.74;100184.44;213104;1276;141907;-66
2022/04/14 05:37:31;;;;;;;28.70;16.90;;;;;;;7.00;56.28;100186.17;213037;1277;140667;-67
2022/04/14 05:42:33;;;;;;;32.90;17.70;;;;;;;7.20;56.07;100186.62;213118;1277;233864;-70
2022/04/14 05:47:36;;;;;;;19.50;11.30;;;;;;;7.44;55.92;100181.95;213552;1278;141004;-70
2022/04/14 05:52:38;;;;;;;12.90;8.70;;;;;;;7.66;55.33;100186.19;212867;1276;139736;-71
2022/04/14 05:57:41;;;;;;;18.10;10.10;;;;;;;7.91;54.84;100177.77;214144;1277;140578;-73
2022/04/14 06:02:43;;;;;;;20.20;10.10;;;;;;;8.12;54.42;100176.20;214501;1277;205268;-68
2022/04/14 06:07:49;;;;;;;16.70;10.80;;;;;;;8.38;54.32;100181.94;213804;1276;139238;-68
2022/04/14 06:12:51;;;;;;;9.10;8.10;;;;;;;8.70;53.82;100180.42;214158;1278;139843;-69
2022/04/14 06:17:54;;;;;;;10.90;6.70;;;;;;;8.98;53.38;100185.42;214630;1276;140163;-73
2022/04/14 06:22:58;;;;;;;13.00;7.80;;;;;;;9.26;52.70;100184.48;215103;1277;139024;-73
2022/04/14 06:28:04;;;;;;;14.30;9.40;;;;;;;9.51;52.19;100176.84;213920;1277;141025;-76
2022/04/14 06:33:08;;;;;;;13.70;7.90;;;;;;;9.66;51.72;100174.75;214224;1277;161442;-71
2022/04/14 06:38:13;;;;;;;13.40;8.90;;;;;;;9.92;51.69;100173.83;213844;1277;141984;-75
2022/04/14 06:43:24;;;;;;;16.50;11.00;;;;;;;10.19;51.41;100174.66;213270;1277;141190;-73
2022/04/14 06:48:28;;;;;;;12.70;9.40;;;;;;;10.61;51.25;100183.26;215505;1276;164215;-75
2022/04/14 06:53:31;;;;;;;14.00;10.40;;;;;;;11.25;50.65;100182.14;215211;1277;141603;-68
2022/04/14 06:58:36;;;;;;;18.10;10.10;;;;;;;11.84;49.92;100182.36;215390;1276;246869;-74
2022/04/14 07:03:39;;;;;;;14.10;10.80;;;;;;;12.39;49.39;100174.90;213739;1277;140506;-68
2022/04/14 07:08:43;;;;;;;18.90;10.50;;;;;;;12.69;49.42;100170.46;213745;1277;140260;-71
2022/04/14 07:13:47;;;;;;;16.90;10.70;;;;;;;13.04;49.34;100166.27;213748;1277;140482;-73
2022/04/14 07:18:50;;;;;;;18.00;11.10;;;;;;;13.74;48.78;100156.93;213548;1277;140743;-65
2022/04/14 07:23:53;;;;;;;21.50;11.30;;;;;;;14.89;47.96;100157.69;213063;1277;139732;-76
2022/04/14 07:28:55;;;;;;;18.10;12.10;;;;;;;15.87;47.49;100157.73;214339;1277;139855;-72
2022/04/14 07:33:59;;;;;;;17.10;12.00;;;;;;;16.80;47.49;100155.77;213199;1276;140310;-74
2022/04/14 07:39:04;;;;;;;20.90;13.00;;;;;;;17.51;45.90;100155.77;213914;1277;141440;-74
2022/04/14 07:44:07;;;;;;;21.70;13.50;;;;;;;18.11;45.41;100150.73;212816;1279;140851;-72
2022/04/14 07:49:10;;;;;;;16.20;10.30;;;;;;;18.61;44.70;100149.60;213580;1277;140406;-69
2022/04/14 07:54:14;;;;;;;16.90;11.50;;;;;;;18.87;43.75;100149.48;213022;1277;140185;-71
2022/04/14 07:59:17;;;;;;;19.80;13.10;;;;;;;19.16;43.61;100149.08;213741;1277;140860;-70
2022/04/14 08:04:21;;;;;;;18.00;11.20;;;;;;;19.42;42.70;100149.19;212843;1277;140081;-67
2022/04/14 08:09:24;;;;;;;19.80;14.40;;;;;;;19.49;41.94;100147.25;213728;1277;139824;-69
2022/04/14 08:14:28;;;;;;;20.90;12.50;;;;;;;19.29;41.44;100144.48;213567;1277;140514;-77
2022/04/14 08:19:34;;;;;;;19.70;13.80;;;;;;;19.22;41.44;100141.52;214163;1277;140649;-76
2022/04/14 08:24:36;;;;;;;17.60;12.10;;;;;;;19.21;41.38;100140.55;214150;1275;141210;-73
2022/04/14 08:29:39;;;;;;;21.10;12.60;;;;;;;19.24;41.11;100143.40;213409;1278;141047;-76
2022/04/14 08:34:45;;;;;;;22.30;13.30;;;;;;;19.40;41.56;100139.09;213332;1277;140672;-65
2022/04/14 08:39:48;;;;;;;12.70;10.70;;;;;;;19.69;41.47;100135.73;213028;1279;142475;-74
2022/04/14 08:45:01;;;;;;;19.40;12.90;;;;;;;19.89;40.94;100132.55;213416;1277;141403;-75
2022/04/14 08:50:15;;;;;;;19.40;12.90;;;;;;;20.11;40.94;100127.13;213417;1276;141266;-75
2022/04/14 08:55:18;;;;;;;15.50;10.30;;;;;;;20.38;40.69;100121.99;214033;1277;141120;-72
2022/04/14 09:00:22;;;;;;;14.50;10.30;;;;;;;20.55;39.72;100111.33;214723;1279;141315;-74
2022/04/14 09:05:25;;;;;;;17.00;12.50;;;;;;;20.36;38.71;100107.40;214980;1278;141352;-75
2022/04/14 09:10:28;;;;;;;16.70;12.00;;;;;;;20.32;39.56;100110.26;213072;1276;140260;-74
2022/04/14 09:15:31;;;;;;;22.20;12.60;;;;;;;20.57;39.68;100105.19;214128;1278;139699;-71
2022/04/14 09:20:38;;;;;;;18.10;12.00;;;;;;;20.57;39.10;100105.08;214232;1277;140078;-75
2022/04/14 09:25:45;;;;;;;24.10;14.10;;;;;;;20.62;39.01;100099.59;214500;1277;139958;-75
2022/04/14 09:31:08;;;;;;;18.60;12.90;;;;;;;20.85;39.13;100096.38;213781;1277;140224;-75
2022/04/14 09:36:17;;;;;;;18.40;12.50;;;;;;;21.14;39.09;100088.02;213794;1277;140907;-76
2022/04/14 09:41:32;;;;;;;18.50;11.10;;;;;;;21.36;38.48;100079.94;213398;1277;141268;-76
2022/04/14 09:46:37;;;;;;;13.40;10.50;;;;;;;21.35;38.08;100076.10;214150;1278;141744;-76
2022/04/14 09:51:42;;;;;;;17.90;12.60;;;;;;;21.54;37.95;100068.44;213225;1277;141156;-69
2022/04/14 09:56:53;;;;;;;19.80;12.10;;;;;;;21.46;37.42;100060.27;213245;1277;140833;-73
2022/04/14 10:02:12;;;;;;;20.30;13.50;;;;;;;21.44;37.43;100058.52;213951;1277;231246;-67
2022/04/14 10:07:20;;;;;;;13.70;10.10;;;;;;;21.49;37.87;100056.79;214175;1277;140108;-73
2022/04/14 10:12:24;;;;;;;13.20;9.80;;;;;;;21.67;37.15;100050.39;213683;1278;141186;-75
2022/04/14 10:17:37;;;;;;;14.20;10.30;;;;;;;21.74;36.98;100042.70;214079;1276;140063;-68
2022/04/14 10:22:42;;;;;;;15.70;10.70;;;;;;;21.87;36.77;100034.44;213886;1276;139886;-73
2022/04/14 10:27:46;;;;;;;18.70;12.20;;;;;;;21.98;36.62;100031.45;213843;1276;206804;-75
2022/04/14 10:32:51;;;;;;;16.80;10.00;;;;;;;22.00;36.26;100031.77;213128;1277;140587;-76
2022/04/14 10:38:26;;;;;;;19.10;9.10;;;;;;;22.14;36.02;100028.09;213086;1277;141874;-70
2022/04/14 10:43:33;;;;;;;16.70;10.60;;;;;;;22.05;35.39;100029.29;213491;1277;141046;-74
2022/04/14 10:48:40;;;;;;;12.30;9.60;;;;;;;21.94;35.85;100028.33;213872;1277;1002843;-75
2022/04/14 10:54:01;;;;;;;13.10;10.70;;;;;;;21.93;35.73;100027.86;215625;1276;141068;-72
2022/04/14 10:59:05;;;;;;;12.10;7.80;;;;;;;22.04;35.64;100019.44;215082;1277;141117;-74
2022/04/14 11:04:30;;;;;;;9.90;8.10;;;;;;;22.25;35.39;100027.52;214370;1278;140561;-69
2022/04/14 11:09:42;;;;;;;13.30;8.40;;;;;;;22.47;35.09;100020.47;213024;1278;141215;-77
2022/04/14 11:14:49;;;;;;;9.20;7.10;;;;;;;22.44;35.12;100021.77;214487;1276;140893;-75
2022/04/14 11:19:51;;;;;;;15.30;8.70;;;;;;;22.54;34.98;100017.30;213564;1278;142725;-72
2022/04/14 11:24:53;;;;;;;13.80;9.20;;;;;;;22.68;34.86;100017.30;214065;1276;140559;-77
2022/04/14 11:30:00;;;;;;;17.50;7.20;;;;;;;22.72;34.86;100012.64;213658;1277;141719;-75
2022/04/14 11:35:13;;;;;;;;;;;;;;;22.73;34.74;100010.56;212771;1277;162841;-72
2022/04/14 11:40:18;;;;;;;7.80;6.30;;;;;;;22.65;34.60;100004.39;215644;1276;126704;-72
2022/04/14 11:45:34;;;;;;;11.40;7.80;;;;;;;22.41;34.39;100002.16;213431;1278;139842;-72
2022/04/14 11:50:40;;;;;;;10.30;7.10;;;;;;;22.41;34.67;99998.96;213662;1279;141394;-70
2022/04/14 11:55:43;;;;;;;11.20;8.10;;;;;;;22.62;34.31;99990.21;213599;1276;139961;-63
2022/04/14 12:00:51;;;;;;;12.10;8.20;;;;;;;22.93;34.54;99991.07;212975;1278;139833;-68
2022/04/14 12:05:53;;;;;;;12.10;6.10;;;;;;;23.19;34.53;99991.99;212734;1278;142784;-70
2022/04/14 12:11:01;;;;;;;10.90;7.50;;;;;;;23.27;33.63;99991.77;213223;1279;139938;-71
2022/04/14 12:16:11;;;;;;;13.20;8.00;;;;;;;23.24;33.53;99986.12;213059;1278;139533;-67
2022/04/14 12:21:26;;;;;;;7.60;6.60;;;;;;;23.17;33.07;99978.71;213777;1279;141293;-70
2022/04/14 12:26:32;;;;;;;8.50;7.10;;;;;;;23.10;32.99;99975.66;213778;1278;139806;-71
2022/04/14 12:31:35;;;;;;;11.40;8.10;;;;;;;23.05;32.84;99968.02;213183;1278;139285;-73
2022/04/14 12:36:39;;;;;;;11.20;6.60;;;;;;;22.98;32.74;99965.33;213247;1276;140059;-69
2022/04/14 12:41:43;;;;;;;8.30;6.20;;;;;;;22.75;32.63;99957.42;213031;1276;140433;-69
2022/04/14 12:46:52;;;;;;;12.10;8.50;;;;;;;22.67;32.26;99955.59;213494;1276;140739;-72
2022/04/14 12:51:59;;;;;;;10.00;6.30;;;;;;;22.63;32.65;99951.20;215202;1278;139513;-71
2022/04/14 12:57:04;;;;;;;9.80;7.10;;;;;;;22.70;32.76;99944.10;213185;1278;141840;-67
2022/04/14 13:02:07;;;;;;;12.50;7.50;;;;;;;22.82;32.71;99940.73;215149;1277;140340;-70
2022/04/14 13:07:14;;;;;;;7.40;6.00;;;;;;;22.87;32.49;99928.93;214383;1276;140204;-70
2022/04/14 13:12:40;;;;;;;9.50;6.60;;;;;;;22.97;32.60;99926.64;214473;1278;139844;-70
2022/04/14 13:17:42;;;;;;;7.40;6.60;;;;;;;23.00;32.47;99922.09;214988;1278;139301;-72
2022/04/14 13:22:48;;;;;;;8.10;6.40;;;;;;;22.99;32.27;99918.81;213894;1279;139602;-70
2022/04/14 13:27:51;;;;;;;7.10;6.10;;;;;;;22.88;31.78;99913.89;214659;1278;140261;-71
2022/04/14 13:32:54;;;;;;;11.10;6.50;;;;;;;22.81;31.92;99908.24;214337;1276;205978;-70
2022/04/14 13:37:57;;;;;;;6.90;6.20;;;;;;;22.72;31.85;99907.91;214186;1277;139771;-70
2022/04/14 13:43:02;;;;;;;8.70;5.00;;;;;;;22.65;31.36;99906.81;214211;1277;141466;-68
2022/04/14 13:48:06;;;;;;;6.40;5.10;;;;;;;22.61;31.83;99904.39;214213;1278;139912;-72
2022/04/14 13:53:13;;;;;;;7.40;6.60;;;;;;;22.59;31.58;99899.62;213369;1277;140833;-72
2022/04/14 13:58:17;;;;;;;11.60;6.70;;;;;;;22.57;31.61;99898.58;213222;1278;140456;-72
2022/04/14 14:03:20;;;;;;;13.00;8.10;;;;;;;22.53;32.07;99893.98;213002;1279;140424;-71
2022/04/14 14:08:24;;;;;;;8.60;6.80;;;;;;;22.35;32.12;99896.13;213330;1278;142120;-77
2022/04/14 14:13:27;;;;;;;10.00;8.50;;;;;;;22.33;32.05;99889.49;213186;1278;140510;-75
2022/04/14 14:18:31;;;;;;;10.40;6.70;;;;;;;22.24;31.94;99888.73;213414;1277;231117;-73
2022/04/14 14:23:34;;;;;;;10.20;7.80;;;;;;;22.03;32.13;99891.72;213710;1277;140558;-75
2022/04/14 14:28:37;;;;;;;9.50;6.60;;;;;;;22.00;31.95;99884.35;213191;1277;139827;-76
2022/04/14 14:33:40;;;;;;;11.40;6.80;;;;;;;22.04;31.91;99882.95;213134;1278;140104;-77
2022/04/14 14:38:44;;;;;;;10.60;5.50;;;;;;;22.05;31.77;99878.80;214941;1278;140266;-79
2022/04/14 14:43:47;;;;;;;7.40;5.10;;;;;;;21.92;31.64;99872.36;213365;1276;140686;-76
2022/04/14 14:48:50;;;;;;;11.60;6.10;;;;;;;21.88;31.63;99867.45;213741;1279;140896;-65
2022/04/14 14:53:53;;;;;;;7.50;5.80;;;;;;;21.84;31.65;99866.88;213530;1278;141378;-73
2022/04/14 15:04:19;;;;;;;9.10;5.40;;;;;;;21.70;31.33;99854.82;214533;1277;141653;-67
2022/04/14 15:09:22;;;;;;;8.30;4.90;;;;;;;21.47;31.48;99852.39;213468;1277;141092;-72
2022/04/14 15:14:27;;;;;;;5.30;4.50;;;;;;;21.50;31.47;99852.45;215598;1279;140791;-72
2022/04/14 15:19:31;;;;;;;5.30;3.60;;;;;;;21.50;31.46;99856.19;214258;1277;140660;-67
2022/04/14 15:24:33;;;;;;;5.30;4.50;;;;;;;21.45;31.41;99852.91;213156;1276;140437;-68
2022/04/14 15:29:36;;;;;;;7.40;5.40;;;;;;;21.41;31.42;99851.02;213848;1277;142920;-76
2022/04/14 15:34:38;;;;;;;8.30;4.90;;;;;;;21.40;31.38;99852.55;212976;1277;141010;-71
2022/04/14 15:39:40;;;;;;;4.30;3.90;;;;;;;21.38;31.26;99848.80;213284;1277;140464;-72
2022/04/14 15:44:43;;;;;;;7.80;5.50;;;;;;;21.29;31.36;99850.02;213763;1277;139953;-68
2022/04/14 15:49:47;;;;;;;6.40;5.50;;;;;;;21.20;31.77;99848.77;213249;1278;143163;-73
2022/04/14 15:54:54;;;;;;;13.00;6.10;;;;;;;21.13;31.95;99850.63;214371;1277;141745;-72
2022/04/14 15:59:57;;;;;;;7.20;4.80;;;;;;;21.04;31.67;99848.27;213492;1279;140003;-73
2022/04/14 16:04:59;;;;;;;8.20;6.30;;;;;;;20.97;32.08;99848.41;214900;1277;139102;-73
2022/04/14 16:15:24;;;;;;;12.60;7.10;;;;;;;20.70;32.33;99854.76;213260;1277;140342;-70
2022/04/14 16:20:26;;;;;;;8.20;6.00;;;;;;;20.55;32.25;99849.60;213413;1277;162093;-71
2022/04/14 16:25:29;;;;;;;6.30;4.50;;;;;;;20.44;32.46;99845.09;213080;1277;151163;-64
2022/04/14 16:30:31;;;;;;;6.30;5.30;;;;;;;20.26;32.68;99846.23;213544;1278;139425;-66
2022/04/14 16:35:34;;;;;;;10.20;5.80;;;;;;;19.99;32.97;99850.61;213235;1276;140095;-71
2022/04/14 16:40:37;;;;;;;9.10;5.70;;;;;;;19.76;33.17;99856.26;213675;1277;140347;-65
2022/04/14 16:45:39;;;;;;;9.10;6.10;;;;;;;19.56;33.27;99858.41;213597;1277;140445;-71
2022/04/14 16:50:42;;;;;;;10.80;6.80;;;;;;;19.35;33.72;99856.12;213865;1277;139445;-66
2022/04/14 16:55:48;;;;;;;6.20;4.80;;;;;;;19.14;33.92;99857.40;214311;1277;139912;-70
2022/04/14 17:00:51;;;;;;;7.20;4.70;;;;;;;18.88;34.43;99856.55;214720;1277;139757;-67
2022/04/14 17:05:53;;;;;;;8.60;4.30;;;;;;;18.61;34.89;99866.96;215627;1277;140877;-70
2022/04/14 17:10:55;;;;;;;6.20;4.00;;;;;;;18.34;35.11;99863.84;214515;1277;139988;-68
2022/04/14 17:15:58;;;;;;;5.70;4.20;;;;;;;18.07;36.75;99864.42;215080;1277;141969;-70
2022/04/14 17:21:01;;;;;;;8.00;4.70;;;;;;;17.76;37.51;99860.36;215451;1277;142074;-74
2022/04/14 17:26:04;;;;;;;3.90;3.60;;;;;;;17.49;37.52;99860.33;215550;1277;140832;-75
2022/04/14 17:31:06;;;;;;;15.20;4.80;;;;;;;17.26;38.08;99861.08;215479;1277;139928;-73
2022/04/14 17:36:09;;;;;;;30.30;9.50;;;;;;;17.01;38.49;99859.98;214568;1277;139630;-74
2022/04/14 17:41:14;;;;;;;11.70;5.60;;;;;;;16.74;39.35;99863.09;212853;1277;140517;-76
2022/04/14 17:46:17;;;;;;;10.40;6.90;;;;;;;16.45;40.09;99863.70;214194;1277;139902;-76
2022/04/14 17:51:24;;;;;;;8.30;5.40;;;;;;;16.17;41.13;99865.69;213844;1277;141058;-73
2022/04/14 17:56:29;;;;;;;8.80;5.50;;;;;;;15.87;42.02;99870.92;214471;1277;140789;-72
2022/04/14 18:01:31;;;;;;;21.70;6.00;;;;;;;15.61;43.43;99876.75;213476;1281;139281;-65
2022/04/14 18:06:37;;;;;;;17.10;6.50;;;;;;;15.40;44.06;99876.50;213643;1277;140448;-68
2022/04/14 18:11:42;;;;;;;21.50;7.10;;;;;;;15.23;44.72;99876.97;213344;1277;141669;-69
2022/04/14 18:16:45;;;;;;;18.10;6.90;;;;;;;15.07;45.38;99881.94;212919;1277;141413;-68
2022/04/14 18:21:48;;;;;;;11.40;7.40;;;;;;;14.95;45.90;99883.96;213377;1277;140811;-73
2022/04/14 18:26:50;;;;;;;13.20;8.40;;;;;;;14.83;46.36;99884.91;213857;1277;142626;-66
2022/04/14 18:31:53;;;;;;;20.00;9.60;;;;;;;14.72;47.15;99886.07;212926;1277;140957;-69
2022/04/14 18:36:57;;;;;;;12.80;8.70;;;;;;;14.61;47.57;99896.09;213461;1277;140305;-72
2022/04/14 18:42:00;;;;;;;71.00;28.30;;;;;;;14.51;48.26;99913.06;213092;1277;140386;-74
2022/04/14 18:47:04;;;;;;;107.70;32.60;;;;;;;14.36;47.95;99918.17;214214;1277;141043;-68
2022/04/14 18:52:06;;;;;;;51.50;26.40;;;;;;;14.26;48.29;99914.31;212783;1279;141910;-71
2022/04/14 18:57:10;;;;;;;56.30;22.80;;;;;;;14.15;48.80;99911.52;212925;1277;142371;-71
2022/04/14 19:02:13;;;;;;;43.90;19.60;;;;;;;14.04;48.67;99910.89;212851;1277;141896;-66
2022/04/14 19:07:16;;;;;;;36.50;17.20;;;;;;;13.91;48.85;99910.13;213900;1277;154077;-70
2022/04/14 19:12:19;;;;;;;52.60;19.90;;;;;;;13.75;49.98;99908.98;213424;1277;141176;-69
2022/04/14 19:17:21;;;;;;;34.90;18.90;;;;;;;13.57;50.68;99910.81;214089;1277;141287;-70
2022/04/14 19:22:24;;;;;;;49.10;20.20;;;;;;;13.40;51.12;99907.02;213206;1277;142145;-68
2022/04/14 19:27:27;;;;;;;37.70;17.00;;;;;;;13.25;50.84;99906.70;214568;1277;154883;-71
2022/04/14 19:32:31;;;;;;;26.80;14.30;;;;;;;13.09;50.99;99909.11;214574;1279;140434;-69
2022/04/14 19:37:34;;;;;;;24.40;14.30;;;;;;;12.94;51.53;99913.84;215397;1279;141696;-72
2022/04/14 19:42:36;;;;;;;21.70;10.20;;;;;;;12.78;51.73;99918.65;214331;1279;140192;-67
2022/04/14 19:47:38;;;;;;;16.10;12.80;;;;;;;12.61;52.05;99921.42;214344;1277;140084;-71
2022/04/14 19:52:49;;;;;;;28.80;12.10;;;;;;;12.45;52.07;99920.70;214153;1277;139991;-71
2022/04/14 19:57:52;;;;;;;21.70;12.30;;;;;;;12.32;52.75;99924.80;214500;1277;140198;-75
2022/04/14 20:02:55;;;;;;;26.10;13.10;;;;;;;12.17;53.15;99924.94;213398;1277;141236;-70
2022/04/14 20:07:57;;;;;;;26.20;14.20;;;;;;;12.09;53.54;99920.23;214431;1277;140313;-69
2022/04/14 20:13:04;;;;;;;19.50;12.10;;;;;;;12.04;53.89;99912.12;213321;1279;141006;-69
2022/04/14 20:18:07;;;;;;;18.50;11.80;;;;;;;12.02;54.23;99907.11;214067;1277;139943;-67
2022/04/14 20:23:11;;;;;;;22.40;13.00;;;;;;;12.02;54.22;99909.94;213993;1277;140436;-72
2022/04/14 20:28:13;;;;;;;20.60;12.00;;;;;;;12.05;53.99;99916.73;214456;1277;139955;-68
2022/04/14 20:33:16;;;;;;;18.40;13.10;;;;;;;12.05;54.11;99921.33;213458;1277;141079;-71
2022/04/14 20:38:19;;;;;;;15.20;12.70;;;;;;;12.03;54.63;99921.99;213775;1277;139899;-69
2022/04/14 20:43:23;;;;;;;24.70;13.40;;;;;;;12.03;54.86;99910.45;214150;1277;141842;-73
2022/04/14 20:48:28;;;;;;;25.20;16.60;;;;;;;12.06;54.89;99912.80;213556;1277;139670;-70
2022/04/14 20:53:43;;;;;;;26.40;15.70;;;;;;;12.11;54.71;99916.32;214030;1279;140119;-72
2022/04/14 20:58:49;;;;;;;22.40;15.70;;;;;;;12.16;54.67;99922.50;214818;1277;140384;-70
2022/04/14 21:03:52;;;;;;;28.40;18.30;;;;;;;12.16;55.35;99924.31;213469;1277;140884;-73
2022/04/14 21:08:55;;;;;;;30.90;17.40;;;;;;;12.14;55.68;99932.90;214247;1277;141654;-68
2022/04/14 21:13:59;;;;;;;32.90;18.00;;;;;;;12.17;55.33;99936.16;213764;1277;140361;-68
2022/04/14 21:19:03;;;;;;;36.20;19.50;;;;;;;12.25;55.57;99936.76;215155;1277;140417;-70
2022/04/14 21:24:08;;;;;;;36.30;19.80;;;;;;;12.32;55.32;99940.58;215750;1277;139970;-78
2022/04/14 21:29:12;;;;;;;29.70;19.90;;;;;;;12.40;55.17;99936.45;215046;1277;141886;-68
2022/04/14 21:34:15;;;;;;;41.20;23.00;;;;;;;12.45;55.02;99936.91;214149;1277;139970;-67
2022/04/14 21:39:18;;;;;;;41.40;21.90;;;;;;;12.47;55.24;99936.25;214956;1276;140485;-69
2022/04/14 21:44:21;;;;;;;37.80;21.50;;;;;;;12.44;55.14;99938.12;214482;1277;143129;-69
2022/04/14 21:49:24;;;;;;;34.60;21.30;;;;;;;12.43;55.25;99938.85;214668;1277;139984;-67
2022/04/14 21:54:28;;;;;;;38.10;21.30;;;;;;;12.40;55.33;99940.02;213979;1277;140752;-68
2022/04/14 21:59:32;;;;;;;39.40;22.00;;;;;;;12.38;55.14;99940.58;213736;1277;140395;-72
2022/04/14 22:04:34;;;;;;;36.30;20.10;;;;;;;12.37;55.59;99951.29;213447;1277;140088;-72
2022/04/14 22:09:37;;;;;;;39.40;20.70;;;;;;;12.33;55.53;99946.05;214317;1277;140111;-69
2022/04/14 22:14:39;;;;;;;35.20;21.10;;;;;;;12.35;55.71;99950.30;213380;1277;140002;-68
2022/04/14 22:19:42;;;;;;;36.30;20.90;;;;;;;12.37;55.84;99950.83;213053;1279;140746;-67
2022/04/14 22:24:46;;;;;;;34.10;22.10;;;;;;;12.38;56.18;99950.52;213583;1277;141132;-67
2022/04/14 22:29:49;;;;;;;48.60;25.90;;;;;;;12.36;56.18;99951.14;213816;1277;140900;-66
2022/04/14 22:34:52;;;;;;;37.70;21.80;;;;;;;12.35;56.26;99958.27;213016;1277;140256;-68
2022/04/14 22:39:55;;;;;;;41.80;25.00;;;;;;;12.34;56.57;99956.33;213933;1277;141136;-66
2022/04/14 22:44:58;;;;;;;43.60;25.30;;;;;;;12.30;56.42;99958.71;213580;1277;139742;-67
2022/04/14 22:50:01;;;;;;;32.20;22.40;;;;;;;12.26;56.85;99960.08;212318;1277;929025;-67
2022/04/14 22:55:06;;;;;;;32.60;20.50;;;;;;;12.22;57.16;99959.65;213414;1277;140327;-70
2022/04/14 23:00:11;;;;;;;32.00;20.10;;;;;;;12.22;57.39;99960.56;213091;1277;139898;-69
2022/04/14 23:05:14;;;;;;;29.10;19.90;;;;;;;12.23;58.09;99959.07;213883;1277;140992;-68